Time;durP1;ratioP1;P1;durP2;ratioP2;P2;SDS_P1;SDS_P2;PMS_P1;PMS_P2;Temp;Humidity;BMP_temperature;BMP_pressure;BME280_temperature;BME280_humidity;BME280_pressure;Samples;Min_cycle;Max_cycle;Signal;HPM_P1;HPM_P2
2021/10/05 00:00:26;;;;;;;;;;;21.30;99.90;;;;;;5084775;28;19918;-78
2021/10/05 00:02:52;;;;;;;;;;;21.30;99.90;;;;;;5081150;28;19999;-78
2021/10/05 00:05:17;;;;;;;;;;;21.30;99.90;;;;;;5076994;28;19954;-78
2021/10/05 00:07:43;;;;;;;;;;;21.20;99.90;;;;;;5077001;28;19913;-78
2021/10/05 00:10:09;;;;;;;;;;;21.20;99.90;;;;;;5078237;28;20374;-78
2021/10/05 00:12:35;;;;;;;;;;;21.20;99.90;;;;;;5077586;28;19913;-78
2021/10/05 00:15:01;;;;;;;;;;;21.20;99.90;;;;;;5076385;28;20434;-78
2021/10/05 00:17:27;;;;;;;;;;;21.20;99.90;;;;;;5072877;28;20471;-78
2021/10/05 00:19:52;;;;;;;;;;;21.30;99.90;;;;;;5057500;28;19963;-78
2021/10/05 00:22:18;;;;;;;;;;;21.30;99.90;;;;;;5061785;28;19920;-78
2021/10/05 00:24:44;;;;;;;;;;;21.20;99.90;;;;;;5073748;28;19970;-78
2021/10/05 00:27:09;;;;;;;;;;;21.20;99.90;;;;;;5076528;28;19912;-78
2021/10/05 00:29:35;;;;;;;;;;;21.20;99.90;;;;;;5078763;28;20358;-78
2021/10/05 00:32:01;;;;;;;;;;;21.20;99.90;;;;;;5080177;28;19920;-78
2021/10/05 00:34:26;;;;;;;;;;;21.20;99.90;;;;;;5075403;28;20029;-78
2021/10/05 00:36:52;;;;;;;;;;;21.20;99.90;;;;;;5077827;28;19952;-78
2021/10/05 00:39:18;;;;;;;;;;;21.20;99.90;;;;;;5073945;28;20404;-78
2021/10/05 00:41:43;;;;;;;;;;;21.20;99.90;;;;;;5075942;28;20022;-78
2021/10/05 00:44:09;;;;;;;;;;;21.10;99.90;;;;;;5080312;28;20393;-78
2021/10/05 00:46:35;;;;;;;;;;;21.10;99.90;;;;;;5083983;28;19936;-78
2021/10/05 00:49:01;;;;;;;;;;;21.10;99.90;;;;;;5076979;28;19912;-78
2021/10/05 00:51:27;;;;;;;;;;;21.10;99.90;;;;;;5076748;28;19938;-78
2021/10/05 00:53:53;;;;;;;;;;;21.00;99.90;;;;;;5081819;28;20007;-78
2021/10/05 00:56:19;;;;;;;;;;;21.00;99.90;;;;;;5074930;28;19944;-78
2021/10/05 00:58:45;;;;;;;;;;;21.00;99.90;;;;;;5075646;28;19923;-78
2021/10/05 01:01:10;;;;;;;;;;;21.10;99.90;;;;;;5084384;28;19920;-79
2021/10/05 01:03:36;;;;;;;;;;;21.00;99.90;;;;;;5076316;28;19958;-78
2021/10/05 01:06:02;;;;;;;;;;;21.00;99.90;;;;;;5075628;28;19961;-78
2021/10/05 01:08:30;;;;;;;;;;;21.00;99.90;;;;;;5081338;28;20019;-78
2021/10/05 01:10:55;;;;;;;;;;;21.00;99.90;;;;;;5073436;28;20206;-78
2021/10/05 01:13:21;;;;;;;;;;;21.00;99.90;;;;;;5075192;28;19912;-78
2021/10/05 01:15:47;;;;;;;;;;;21.00;99.90;;;;;;5073732;28;19909;-78
2021/10/05 01:18:12;;;;;;;;;;;21.00;99.90;;;;;;5077049;28;19951;-80
2021/10/05 01:21:10;;;;;;;;;;;20.90;99.90;;;;;;5077887;28;19971;-80
2021/10/05 01:23:37;;;;;;;;;;;20.90;99.90;;;;;;5061595;28;20276;-77
2021/10/05 01:26:03;;;;;;;;;;;20.90;99.90;;;;;;5075642;28;19916;-78
2021/10/05 01:28:31;;;;;;;;;;;20.90;99.90;;;;;;5076390;28;20302;-78
2021/10/05 01:30:57;;;;;;;;;;;20.90;99.90;;;;;;5079755;28;19919;-78
2021/10/05 01:33:24;;;;;;;;;;;20.90;99.90;;;;;;5074467;28;19974;-77
2021/10/05 01:35:50;;;;;;;;;;;21.00;99.90;;;;;;5068179;28;20586;-77
2021/10/05 01:38:16;;;;;;;;;;;21.00;99.90;;;;;;5073773;28;19985;-77
2021/10/05 01:40:42;;;;;;;;;;;21.00;99.90;;;;;;5074781;28;20381;-77
2021/10/05 01:43:08;;;;;;;;;;;21.10;99.90;;;;;;5068788;28;20378;-77
2021/10/05 01:45:33;;;;;;;;;;;21.10;99.90;;;;;;5074036;28;20457;-77
2021/10/05 01:47:59;;;;;;;;;;;21.10;99.90;;;;;;5073201;28;19970;-78
2021/10/05 01:50:27;;;;;;;;;;;21.10;99.90;;;;;;5074848;28;19913;-78
2021/10/05 01:52:53;;;;;;;;;;;21.10;99.90;;;;;;5075247;28;19912;-77
2021/10/05 01:55:21;;;;;;;;;;;21.00;99.90;;;;;;5074561;28;19913;-77
2021/10/05 01:57:47;;;;;;;;;;;21.00;99.90;;;;;;5075148;28;19944;-77
2021/10/05 02:00:12;;;;;;;;;;;21.00;99.90;;;;;;5078940;28;19919;-78
2021/10/05 02:02:38;;;;;;;;;;;21.10;99.90;;;;;;5074527;28;19939;-77
2021/10/05 02:05:04;;;;;;;;;;;21.10;99.90;;;;;;5076184;28;20289;-77
2021/10/05 02:07:30;;;;;;;;;;;21.10;99.90;;;;;;5074870;28;19923;-77
2021/10/05 02:09:56;;;;;;;;;;;21.10;99.90;;;;;;5076065;28;19912;-77
2021/10/05 02:12:21;;;;;;;;;;;21.10;99.90;;;;;;5079548;28;19913;-77
2021/10/05 02:14:47;;;;;;;;;;;21.20;99.90;;;;;;5075589;28;20443;-77
2021/10/05 02:17:14;;;;;;;;;;;21.20;99.90;;;;;;5078990;28;19915;-78
2021/10/05 02:19:39;;;;;;;;;;;21.30;99.90;;;;;;5078630;28;19912;-78
2021/10/05 02:22:05;;;;;;;;;;;21.30;99.90;;;;;;5078031;28;19934;-78
2021/10/05 02:24:42;;;;;;;;;;;21.30;99.90;;;;;;5079586;28;19913;-77
2021/10/05 02:27:09;;;;;;;;;;;21.40;99.90;;;;;;5078197;28;19951;-79
2021/10/05 02:29:36;;;;;;;;;;;21.50;99.90;;;;;;5082163;28;19924;-77
2021/10/05 02:32:05;;;;;;;;;;;21.50;99.90;;;;;;5077208;28;20331;-77
2021/10/05 02:34:31;;;;;;;;;;;21.50;99.90;;;;;;5076513;28;20305;-78
2021/10/05 02:36:56;;;;;;;;;;;21.60;99.90;;;;;;5079943;28;19912;-78
2021/10/05 02:39:22;;;;;;;;;;;21.60;99.90;;;;;;5079761;28;19919;-77
2021/10/05 02:41:48;;;;;;;;;;;21.60;99.90;;;;;;5075878;28;19940;-78
2021/10/05 02:44:13;;;;;;;;;;;21.60;99.90;;;;;;5076624;28;19913;-79
2021/10/05 02:46:39;;;;;;;;;;;21.60;99.90;;;;;;5084941;28;19924;-78
2021/10/05 02:49:05;;;;;;;;;;;21.60;99.90;;;;;;5080808;28;20285;-77
2021/10/05 02:51:30;;;;;;;;;;;21.60;99.90;;;;;;5079348;28;20348;-77
2021/10/05 02:53:57;;;;;;;;;;;21.60;99.90;;;;;;5080965;28;19913;-78
2021/10/05 02:56:22;;;;;;;;;;;21.50;99.90;;;;;;5078598;28;19916;-77
2021/10/05 02:58:48;;;;;;;;;;;21.40;99.90;;;;;;5076727;28;19916;-77
2021/10/05 03:01:13;;;;;;;;;;;21.50;99.90;;;;;;5081243;28;20293;-77
2021/10/05 03:03:39;;;;;;;;;;;21.50;99.90;;;;;;5081591;28;19913;-78
2021/10/05 03:06:05;;;;;;;;;;;21.40;99.90;;;;;;5080508;28;19923;-78
2021/10/05 03:08:30;;;;;;;;;;;21.40;99.90;;;;;;5081549;28;19939;-79
2021/10/05 03:10:57;;;;;;;;;;;21.30;99.90;;;;;;5082380;28;19913;-78
2021/10/05 03:13:23;;;;;;;;;;;21.40;99.90;;;;;;5077597;28;19912;-80
2021/10/05 03:15:49;;;;;;;;;;;21.30;99.90;;;;;;5081376;28;19912;-78
2021/10/05 03:18:14;;;;;;;;;;;21.10;99.90;;;;;;5084777;28;19956;-77
2021/10/05 03:20:40;;;;;;;;;;;21.10;99.90;;;;;;5077099;28;19912;-77
2021/10/05 03:23:06;;;;;;;;;;;21.00;99.90;;;;;;5078675;28;19935;-77
2021/10/05 03:25:31;;;;;;;;;;;21.00;99.90;;;;;;5078782;28;20430;-77
2021/10/05 03:27:57;;;;;;;;;;;21.00;99.90;;;;;;5076635;28;20370;-78
2021/10/05 03:30:23;;;;;;;;;;;21.10;99.90;;;;;;5078153;28;19912;-78
2021/10/05 03:32:48;;;;;;;;;;;21.00;99.90;;;;;;5075845;28;19912;-78
2021/10/05 03:35:14;;;;;;;;;;;20.90;99.90;;;;;;5075347;28;20515;-79
2021/10/05 03:37:40;;;;;;;;;;;21.00;99.90;;;;;;5075359;28;20007;-77
2021/10/05 03:40:06;;;;;;;;;;;20.90;99.90;;;;;;5080960;28;19958;-77
2021/10/05 03:42:32;;;;;;;;;;;20.90;99.90;;;;;;5072753;28;19913;-77
2021/10/05 03:44:58;;;;;;;;;;;20.80;99.90;;;;;;5073505;28;19972;-78
2021/10/05 03:47:23;;;;;;;;;;;20.70;99.90;;;;;;5076013;28;20358;-78
2021/10/05 03:49:49;;;;;;;;;;;20.60;99.90;;;;;;5078081;28;19912;-77
2021/10/05 03:52:15;;;;;;;;;;;20.70;99.90;;;;;;5076752;28;19916;-77
2021/10/05 03:54:42;;;;;;;;;;;20.70;99.90;;;;;;5082634;28;20354;-77
2021/10/05 03:57:08;;;;;;;;;;;20.70;99.90;;;;;;5076310;28;19910;-78
2021/10/05 03:59:33;;;;;;;;;;;20.70;99.90;;;;;;5078866;28;19966;-78
2021/10/05 04:01:59;;;;;;;;;;;20.70;99.90;;;;;;5078423;28;20396;-77
2021/10/05 04:04:25;;;;;;;;;;;20.60;99.90;;;;;;5081489;28;20384;-81
2021/10/05 04:06:50;;;;;;;;;;;20.60;99.90;;;;;;5077681;28;19912;-78
2021/10/05 04:09:16;;;;;;;;;;;20.60;99.90;;;;;;5077683;28;19920;-77
2021/10/05 04:11:42;;;;;;;;;;;20.60;99.90;;;;;;5076841;28;19936;-78
2021/10/05 04:14:08;;;;;;;;;;;20.60;99.90;;;;;;5079213;28;19938;-78
2021/10/05 04:16:34;;;;;;;;;;;20.60;99.90;;;;;;5081581;28;19915;-78
2021/10/05 04:19:00;;;;;;;;;;;20.60;99.90;;;;;;5078180;28;19912;-79
2021/10/05 04:21:25;;;;;;;;;;;20.60;99.90;;;;;;5079128;28;19913;-78
2021/10/05 04:23:51;;;;;;;;;;;20.60;99.90;;;;;;5077363;28;19923;-78
2021/10/05 04:26:17;;;;;;;;;;;20.60;99.90;;;;;;5079078;28;19916;-77
2021/10/05 04:28:42;;;;;;;;;;;20.60;99.90;;;;;;5078696;28;19918;-77
2021/10/05 04:31:08;;;;;;;;;;;20.60;99.90;;;;;;5075241;28;19916;-77
2021/10/05 04:33:35;;;;;;;;;;;20.60;99.90;;;;;;5073636;28;19912;-77
2021/10/05 04:36:01;;;;;;;;;;;20.60;99.90;;;;;;5092398;28;19996;-77
2021/10/05 04:38:26;;;;;;;;;;;20.60;99.90;;;;;;5077882;28;20385;-77
2021/10/05 04:40:52;;;;;;;;;;;20.60;99.90;;;;;;5083258;28;19912;-77
2021/10/05 04:43:18;;;;;;;;;;;20.60;99.90;;;;;;5077694;28;19912;-77
2021/10/05 04:45:44;;;;;;;;;;;20.60;99.90;;;;;;5079623;28;19916;-78
2021/10/05 04:48:09;;;;;;;;;;;20.70;99.90;;;;;;5076813;28;19920;-77
2021/10/05 04:50:35;;;;;;;;;;;20.70;99.90;;;;;;5076752;28;19912;-77
2021/10/05 04:53:01;;;;;;;;;;;20.70;99.90;;;;;;5077174;28;20011;-80
2021/10/05 04:55:27;;;;;;;;;;;20.70;99.90;;;;;;5081449;28;19920;-77
2021/10/05 04:57:52;;;;;;;;;;;20.70;99.90;;;;;;5079228;28;19946;-77
2021/10/05 05:00:18;;;;;;;;;;;20.70;99.90;;;;;;5078286;28;19922;-77
2021/10/05 05:02:44;;;;;;;;;;;20.80;99.90;;;;;;5074398;28;19912;-78
2021/10/05 05:05:09;;;;;;;;;;;20.80;99.90;;;;;;5078844;28;19936;-77
2021/10/05 05:07:35;;;;;;;;;;;20.80;99.90;;;;;;5080409;28;20043;-79
2021/10/05 05:10:02;;;;;;;;;;;20.80;99.90;;;;;;5076207;28;19999;-78
2021/10/05 05:12:28;;;;;;;;;;;20.70;99.90;;;;;;5075682;28;20405;-77
2021/10/05 05:14:54;;;;;;;;;;;20.80;99.90;;;;;;5074970;28;19921;-77
2021/10/05 05:17:19;;;;;;;;;;;20.80;99.90;;;;;;5079288;28;19936;-77
2021/10/05 05:19:45;;;;;;;;;;;20.80;99.90;;;;;;5077102;28;19999;-78
2021/10/05 05:22:11;;;;;;;;;;;20.70;99.90;;;;;;5078048;28;19916;-77
2021/10/05 05:24:36;;;;;;;;;;;20.80;99.90;;;;;;5083560;28;19916;-77
2021/10/05 05:27:02;;;;;;;;;;;20.70;99.90;;;;;;5081226;28;19923;-77
2021/10/05 05:29:28;;;;;;;;;;;20.70;99.90;;;;;;5080543;28;19980;-77
2021/10/05 05:31:57;;;;;;;;;;;20.70;99.90;;;;;;5080335;28;19946;-77
2021/10/05 05:34:23;;;;;;;;;;;20.60;99.90;;;;;;5073792;28;19919;-77
2021/10/05 05:36:49;;;;;;;;;;;20.60;99.90;;;;;;5078129;28;19962;-78
2021/10/05 05:39:14;;;;;;;;;;;20.60;99.90;;;;;;5079156;28;19916;-77
2021/10/05 05:41:41;;;;;;;;;;;20.50;99.90;;;;;;5076209;28;19912;-78
2021/10/05 05:44:06;;;;;;;;;;;20.40;99.90;;;;;;5074306;28;19921;-77
2021/10/05 05:46:32;;;;;;;;;;;20.50;99.90;;;;;;5078002;28;20245;-77
2021/10/05 05:48:58;;;;;;;;;;;20.50;99.90;;;;;;5071360;28;19951;-77
2021/10/05 05:51:23;;;;;;;;;;;20.50;99.90;;;;;;5071804;28;20277;-77
2021/10/05 05:53:49;;;;;;;;;;;20.50;99.90;;;;;;5070874;28;20347;-77
2021/10/05 05:56:15;;;;;;;;;;;20.50;99.90;;;;;;5075933;28;19966;-77
2021/10/05 05:58:40;;;;;;;;;;;20.50;99.90;;;;;;5072680;28;19917;-77
2021/10/05 06:01:06;;;;;;;;;;;20.50;99.90;;;;;;5077599;28;19920;-77
2021/10/05 06:03:31;;;;;;;;;;;20.50;99.90;;;;;;5075899;28;19912;-77
2021/10/05 06:05:57;;;;;;;;;;;20.50;99.90;;;;;;5074351;28;19913;-77
2021/10/05 06:08:23;;;;;;;;;;;20.50;99.90;;;;;;5078747;28;19912;-76
2021/10/05 06:10:48;;;;;;;;;;;20.30;99.90;;;;;;5074428;28;20297;-81
2021/10/05 06:13:14;;;;;;;;;;;20.20;99.90;;;;;;5077458;28;19916;-77
2021/10/05 06:15:40;;;;;;;;;;;20.10;99.90;;;;;;5080452;28;19913;-77
2021/10/05 06:18:05;;;;;;;;;;;20.00;99.90;;;;;;5080105;28;19912;-81
2021/10/05 06:20:31;;;;;;;;;;;20.00;99.90;;;;;;5084740;28;19912;-77
2021/10/05 06:22:57;;;;;;;;;;;19.90;99.90;;;;;;5080027;28;20396;-77
2021/10/05 06:25:25;;;;;;;;;;;19.90;99.90;;;;;;5075368;28;19917;-80
2021/10/05 06:27:52;;;;;;;;;;;19.90;99.90;;;;;;5075120;28;19958;-77
2021/10/05 06:30:18;;;;;;;;;;;20.00;99.90;;;;;;5073195;28;20389;-77
2021/10/05 06:32:52;;;;;;;;;;;20.00;99.90;;;;;;5073272;28;19913;-80
2021/10/05 06:35:19;;;;;;;;;;;20.10;99.90;;;;;;5074421;28;19939;-77
2021/10/05 06:37:45;;;;;;;;;;;20.20;99.90;;;;;;5074720;28;19916;-77
2021/10/05 06:40:11;;;;;;;;;;;20.20;99.90;;;;;;5065999;28;19959;-77
2021/10/05 06:42:37;;;;;;;;;;;20.40;99.90;;;;;;5070824;28;20286;-77
2021/10/05 06:45:04;;;;;;;;;;;20.40;99.90;;;;;;5074070;28;19999;-78
2021/10/05 06:47:30;;;;;;;;;;;20.50;99.90;;;;;;5073911;28;19913;-77
2021/10/05 06:49:57;;;;;;;;;;;20.50;99.90;;;;;;5073909;28;19912;-77
2021/10/05 06:52:26;;;;;;;;;;;20.50;99.90;;;;;;5073135;28;20362;-78
2021/10/05 06:54:52;;;;;;;;;;;20.60;99.90;;;;;;5072290;28;19913;-77
2021/10/05 06:57:17;;;;;;;;;;;20.60;99.90;;;;;;5075113;28;19989;-77
2021/10/05 06:59:43;;;;;;;;;;;20.70;99.90;;;;;;5077053;28;19908;-77
2021/10/05 07:02:11;;;;;;;;;;;20.80;99.90;;;;;;5076964;28;19916;-77
2021/10/05 07:04:37;;;;;;;;;;;20.90;99.90;;;;;;5077351;28;19916;-77
2021/10/05 07:07:03;;;;;;;;;;;20.90;99.90;;;;;;5076758;28;19916;-76
2021/10/05 07:09:28;;;;;;;;;;;20.90;99.90;;;;;;5077236;28;19913;-77
2021/10/05 07:11:54;;;;;;;;;;;21.00;99.90;;;;;;5077076;28;19908;-77
2021/10/05 07:14:20;;;;;;;;;;;21.00;99.90;;;;;;5074296;28;19919;-77
2021/10/05 07:16:45;;;;;;;;;;;21.10;99.90;;;;;;5056992;28;19909;-77
2021/10/05 07:19:11;;;;;;;;;;;21.10;99.90;;;;;;5057617;28;20434;-77
2021/10/05 07:21:37;;;;;;;;;;;21.10;99.90;;;;;;5057461;28;20627;-77
2021/10/05 07:24:06;;;;;;;;;;;21.20;99.90;;;;;;5070975;28;19962;-77
2021/10/05 07:26:32;;;;;;;;;;;21.20;99.90;;;;;;5086158;28;19935;-76
2021/10/05 07:28:58;;;;;;;;;;;21.20;99.90;;;;;;5084080;28;19912;-78
2021/10/05 07:31:23;;;;;;;;;;;21.30;99.90;;;;;;5080616;28;19912;-74
2021/10/05 07:33:49;;;;;;;;;;;21.30;99.90;;;;;;5071628;28;19912;-75
2021/10/05 07:36:17;;;;;;;;;;;21.30;99.90;;;;;;5078241;28;19908;-75
2021/10/05 07:38:42;;;;;;;;;;;21.40;99.90;;;;;;5078343;28;19916;-79
2021/10/05 07:41:08;;;;;;;;;;;21.40;99.90;;;;;;5075928;28;19962;-76
2021/10/05 07:43:34;;;;;;;;;;;21.40;99.90;;;;;;5079459;28;20293;-74
2021/10/05 07:46:00;;;;;;;;;;;21.40;99.90;;;;;;5083038;28;20373;-75
2021/10/05 07:48:26;;;;;;;;;;;21.40;99.90;;;;;;5076375;28;19913;-75
2021/10/05 07:50:55;;;;;;;;;;;21.40;99.90;;;;;;5085262;28;19916;-75
2021/10/05 07:53:21;;;;;;;;;;;21.30;99.90;;;;;;5079663;28;19962;-77
2021/10/05 07:55:50;;;;;;;;;;;21.30;99.90;;;;;;5073271;28;19912;-75
2021/10/05 07:58:15;;;;;;;;;;;21.30;99.90;;;;;;5073462;28;19965;-75
2021/10/05 08:00:41;;;;;;;;;;;21.40;99.90;;;;;;5073855;28;19968;-76
2021/10/05 08:03:07;;;;;;;;;;;21.40;99.90;;;;;;5076479;28;19931;-75
2021/10/05 08:05:33;;;;;;;;;;;21.40;99.90;;;;;;5074848;28;19912;-76
2021/10/05 08:08:05;;;;;;;;;;;21.40;99.90;;;;;;5067964;28;20420;-75
2021/10/05 08:10:34;;;;;;;;;;;21.50;99.90;;;;;;5075319;28;19919;-75
2021/10/05 08:13:00;;;;;;;;;;;21.60;99.90;;;;;;5060362;28;19987;-75
2021/10/05 08:15:26;;;;;;;;;;;21.50;99.90;;;;;;5055709;28;19913;-75
2021/10/05 08:17:51;;;;;;;;;;;21.40;99.90;;;;;;5058092;28;20002;-75
2021/10/05 08:20:17;;;;;;;;;;;21.50;99.90;;;;;;5066597;28;19912;-75
2021/10/05 08:22:43;;;;;;;;;;;21.50;99.90;;;;;;5074964;28;19924;-75
2021/10/05 08:25:09;;;;;;;;;;;21.50;99.90;;;;;;5064825;28;19955;-74
2021/10/05 08:27:34;;;;;;;;;;;21.40;99.90;;;;;;5055708;28;20370;-76
2021/10/05 08:30:00;;;;;;;;;;;21.60;99.90;;;;;;5055802;28;19909;-75
2021/10/05 08:32:26;;;;;;;;;;;21.60;99.90;;;;;;5072048;28;20377;-75
2021/10/05 08:34:51;;;;;;;;;;;21.70;99.90;;;;;;5071761;28;19916;-74
2021/10/05 08:37:17;;;;;;;;;;;21.80;99.90;;;;;;5067338;28;19908;-76
2021/10/05 08:39:43;;;;;;;;;;;22.00;99.90;;;;;;5069982;28;19913;-75
2021/10/05 08:42:08;;;;;;;;;;;22.00;99.90;;;;;;5060883;28;20345;-75
2021/10/05 08:44:34;;;;;;;;;;;21.90;99.90;;;;;;5056178;28;19919;-75
2021/10/05 08:47:00;;;;;;;;;;;21.80;99.90;;;;;;5076153;28;19920;-75
2021/10/05 08:49:26;;;;;;;;;;;21.70;99.90;;;;;;5069052;28;20351;-75
2021/10/05 08:51:54;;;;;;;;;;;21.70;99.90;;;;;;5071307;28;19909;-75
2021/10/05 08:54:21;;;;;;;;;;;21.50;99.90;;;;;;5073221;28;19948;-76
2021/10/05 08:56:47;;;;;;;;;;;21.50;99.90;;;;;;5069641;28;20294;-75
2021/10/05 08:59:13;;;;;;;;;;;21.60;99.90;;;;;;5072954;28;19912;-76
2021/10/05 09:01:39;;;;;;;;;;;21.80;99.90;;;;;;5069809;28;19913;-75
2021/10/05 09:04:05;;;;;;;;;;;21.80;99.90;;;;;;5073903;28;19923;-76
2021/10/05 09:06:32;;;;;;;;;;;21.90;99.90;;;;;;5073024;28;20410;-76
2021/10/05 09:09:01;;;;;;;;;;;22.10;99.90;;;;;;5074338;28;19908;-76
2021/10/05 09:11:26;;;;;;;;;;;22.40;99.90;;;;;;5074689;28;19920;-76
2021/10/05 09:13:55;;;;;;;;;;;22.70;99.90;;;;;;5074421;28;19912;-77
2021/10/05 09:16:21;;;;;;;;;;;23.00;99.90;;;;;;5071678;28;20689;-76
2021/10/05 09:18:51;;;;;;;;;;;23.10;99.90;;;;;;5071295;28;19916;-76
2021/10/05 09:21:16;;;;;;;;;;;23.10;99.90;;;;;;5071982;28;19916;-76
2021/10/05 09:23:54;;;;;;;;;;;23.00;99.90;;;;;;5077135;28;19923;-76
2021/10/05 09:26:30;;;;;;;;;;;23.10;99.90;;;;;;5072353;28;19963;-76
2021/10/05 09:29:06;;;;;;;;;;;23.10;99.90;;;;;;5073170;28;19908;-76
2021/10/05 09:31:31;;;;;;;;;;;23.10;99.90;;;;;;5068619;28;19958;-76
2021/10/05 09:33:57;;;;;;;;;;;23.10;99.90;;;;;;5071523;28;20006;-77
2021/10/05 09:36:26;;;;;;;;;;;23.10;99.90;;;;;;5070931;28;19913;-79
2021/10/05 09:38:59;;;;;;;;;;;23.10;99.90;;;;;;5070673;28;19975;-77
2021/10/05 09:41:25;;;;;;;;;;;23.20;99.90;;;;;;5068949;28;20318;-76
2021/10/05 09:43:59;;;;;;;;;;;23.10;99.90;;;;;;5071983;28;19913;-76
2021/10/05 09:46:25;;;;;;;;;;;23.00;99.90;;;;;;5072852;28;19913;-76
2021/10/05 09:48:58;;;;;;;;;;;23.00;99.90;;;;;;5071461;28;20382;-75
2021/10/05 09:51:24;;;;;;;;;;;22.90;99.90;;;;;;5068474;28;20507;-76
2021/10/05 09:53:54;;;;;;;;;;;22.90;99.90;;;;;;5077841;28;20502;-76
2021/10/05 09:56:21;;;;;;;;;;;22.90;99.90;;;;;;5067386;28;19940;-75
2021/10/05 09:58:46;;;;;;;;;;;23.00;99.90;;;;;;5070047;28;19963;-76
2021/10/05 10:01:12;;;;;;;;;;;23.10;99.90;;;;;;5070569;28;19908;-75
2021/10/05 10:03:38;;;;;;;;;;;23.40;99.90;;;;;;5072556;28;19912;-76
2021/10/05 10:06:06;;;;;;;;;;;23.60;99.90;;;;;;5067661;28;19935;-75
2021/10/05 10:08:33;;;;;;;;;;;23.80;99.90;;;;;;5071946;28;20427;-76
2021/10/05 10:10:59;;;;;;;;;;;23.80;99.90;;;;;;5068835;28;19912;-75
2021/10/05 10:13:28;;;;;;;;;;;23.80;99.90;;;;;;5073430;28;19909;-77
2021/10/05 10:16:00;;;;;;;;;;;23.90;99.90;;;;;;5069445;28;19931;-76
2021/10/05 10:18:29;;;;;;;;;;;24.00;99.90;;;;;;5071951;28;19916;-76
2021/10/05 10:21:08;;;;;;;;;;;24.10;99.90;;;;;;5072761;28;19909;-76
2021/10/05 10:23:36;;;;;;;;;;;24.00;99.90;;;;;;5063156;28;20391;-75
2021/10/05 10:26:04;;;;;;;;;;;24.00;99.90;;;;;;5066859;28;20412;-76
2021/10/05 10:28:36;;;;;;;;;;;24.10;99.90;;;;;;5073819;28;19908;-75
2021/10/05 10:31:03;;;;;;;;;;;24.20;99.90;;;;;;5070391;28;20378;-76
2021/10/05 10:33:41;;;;;;;;;;;24.30;99.90;;;;;;5075599;28;19916;-75
2021/10/05 10:36:07;;;;;;;;;;;24.40;99.90;;;;;;5072428;28;19912;-76
2021/10/05 10:38:35;;;;;;;;;;;24.50;99.90;;;;;;5068445;28;19920;-76
2021/10/05 10:41:12;;;;;;;;;;;24.50;99.90;;;;;;5075617;28;19916;-77
2021/10/05 10:43:37;;;;;;;;;;;24.60;99.90;;;;;;5074651;28;19913;-76
2021/10/05 10:46:03;;;;;;;;;;;24.60;99.90;;;;;;5088194;28;19923;-76
2021/10/05 10:48:29;;;;;;;;;;;24.60;99.90;;;;;;5096705;28;19923;-76
2021/10/05 10:51:14;;;;;;;;;;;24.50;99.90;;;;;;5084109;28;19987;-75
2021/10/05 10:53:40;;;;;;;;;;;24.60;99.90;;;;;;5080368;28;19912;-75
2021/10/05 10:56:07;;;;;;;;;;;24.60;99.90;;;;;;5084530;28;19921;-76
2021/10/05 10:58:44;;;;;;;;;;;24.60;99.90;;;;;;5092510;28;19915;-76
2021/10/05 11:01:14;;;;;;;;;;;24.60;99.90;;;;;;5092730;28;19959;-76
2021/10/05 11:03:50;;;;;;;;;;;24.60;99.90;;;;;;5078132;28;19919;-75
2021/10/05 11:06:16;;;;;;;;;;;24.50;99.90;;;;;;5079621;28;19912;-76
2021/10/05 11:09:02;;;;;;;;;;;24.30;99.90;;;;;;5079843;28;19912;-77
2021/10/05 11:11:41;;;;;;;;;;;24.30;99.90;;;;;;5079304;28;19916;-76
2021/10/05 11:14:07;;;;;;;;;;;24.50;99.90;;;;;;5077634;28;19931;-76
2021/10/05 11:16:35;;;;;;;;;;;24.70;99.90;;;;;;5081666;28;19919;-76
2021/10/05 11:19:09;;;;;;;;;;;24.80;99.90;;;;;;5072554;28;19951;-76
2021/10/05 11:21:36;;;;;;;;;;;25.00;99.90;;;;;;5079684;28;20000;-76
2021/10/05 11:24:02;;;;;;;;;;;24.80;99.90;;;;;;5081115;28;19935;-76
2021/10/05 11:26:31;;;;;;;;;;;25.00;99.90;;;;;;5079493;28;19916;-76
2021/10/05 11:29:07;;;;;;;;;;;;;;;;;;;;;
2021/10/05 11:31:44;;;;;;;;;;;25.10;99.90;;;;;;5078942;28;21140;-76
2021/10/05 11:34:10;;;;;;;;;;;25.20;99.90;;;;;;5073097;28;19920;-76
2021/10/05 11:36:35;;;;;;;;;;;25.20;99.90;;;;;;5075075;28;19962;-76
2021/10/05 11:39:03;;;;;;;;;;;25.20;99.90;;;;;;5075289;28;20393;-76
2021/10/05 11:41:42;;;;;;;;;;;25.30;99.90;;;;;;5076542;28;19916;-79
2021/10/05 11:44:12;;;;;;;;;;;25.40;99.90;;;;;;5074619;28;19912;-77
2021/10/05 11:46:39;;;;;;;;;;;25.50;99.90;;;;;;5073323;28;20349;-76
2021/10/05 11:49:05;;;;;;;;;;;25.60;99.90;;;;;;5076157;28;19908;-76
2021/10/05 11:51:40;;;;;;;;;;;25.60;99.90;;;;;;5075265;28;19913;-77
2021/10/05 11:54:15;;;;;;;;;;;25.40;99.90;;;;;;5081575;28;20526;-77
2021/10/05 11:56:41;;;;;;;;;;;25.10;99.90;;;;;;5075475;28;19913;-77
2021/10/05 11:59:06;;;;;;;;;;;25.00;99.90;;;;;;5075629;28;19920;-78
2021/10/05 12:01:32;;;;;;;;;;;25.20;99.90;;;;;;5076251;28;19908;-77
2021/10/05 12:04:05;;;;;;;;;;;25.30;99.90;;;;;;5074311;28;19965;-78
2021/10/05 12:06:34;;;;;;;;;;;25.40;99.90;;;;;;5077091;28;19979;-79
2021/10/05 12:09:00;;;;;;;;;;;25.30;99.90;;;;;;5075509;28;19912;-76
2021/10/05 12:11:36;;;;;;;;;;;25.20;99.90;;;;;;5079141;28;19919;-76
2021/10/05 12:14:02;;;;;;;;;;;25.20;99.90;;;;;;5073094;28;19912;-77
2021/10/05 12:16:28;;;;;;;;;;;25.30;99.90;;;;;;5075362;28;19935;-76
2021/10/05 12:19:00;;;;;;;;;;;25.10;99.90;;;;;;5072316;28;20374;-78
2021/10/05 12:21:26;;;;;;;;;;;25.10;99.90;;;;;;5082494;28;19912;-77
2021/10/05 12:23:56;;;;;;;;;;;25.30;99.90;;;;;;5074216;28;19916;-77
2021/10/05 12:26:22;;;;;;;;;;;25.40;99.90;;;;;;5081680;28;20397;-77
2021/10/05 12:28:54;;;;;;;;;;;25.20;99.90;;;;;;5077621;28;19916;-78
2021/10/05 12:31:19;;;;;;;;;;;25.00;99.90;;;;;;5076578;28;19947;-76
2021/10/05 12:33:59;;;;;;;;;;;25.10;99.90;;;;;;5072315;28;19963;-77
2021/10/05 12:36:25;;;;;;;;;;;25.00;99.90;;;;;;5070110;28;19913;-76
2021/10/05 12:38:51;;;;;;;;;;;25.00;99.90;;;;;;5073424;28;20281;-76
2021/10/05 12:41:18;;;;;;;;;;;24.80;99.90;;;;;;5079115;28;19912;-76
2021/10/05 12:43:44;;;;;;;;;;;24.60;99.90;;;;;;5073689;28;19982;-77
2021/10/05 12:46:12;;;;;;;;;;;24.60;99.90;;;;;;5069856;28;20011;-77
2021/10/05 12:48:38;;;;;;;;;;;24.60;99.90;;;;;;5073726;28;19908;-76
2021/10/05 12:51:14;;;;;;;;;;;24.60;99.90;;;;;;5071471;28;19919;-76
2021/10/05 12:53:44;;;;;;;;;;;24.40;99.90;;;;;;5081238;28;19969;-76
2021/10/05 12:56:10;;;;;;;;;;;24.40;99.90;;;;;;5076193;28;20381;-75
2021/10/05 12:58:36;;;;;;;;;;;24.50;99.90;;;;;;5073397;28;19920;-77
2021/10/05 13:01:03;;;;;;;;;;;24.50;99.90;;;;;;5076885;28;19955;-76
2021/10/05 13:03:29;;;;;;;;;;;24.60;99.90;;;;;;5066076;28;19916;-74
2021/10/05 13:05:55;;;;;;;;;;;24.70;99.90;;;;;;5078106;28;19982;-76
2021/10/05 13:08:21;;;;;;;;;;;24.70;99.90;;;;;;5071633;28;20610;-75
2021/10/05 13:10:46;;;;;;;;;;;24.80;99.90;;;;;;5073910;28;19957;-76
2021/10/05 13:13:12;;;;;;;;;;;25.00;99.90;;;;;;5071696;28;19923;-76
2021/10/05 13:15:38;;;;;;;;;;;25.10;99.90;;;;;;5072238;28;19909;-77
2021/10/05 13:18:06;;;;;;;;;;;25.30;99.90;;;;;;5072236;28;19951;-75
2021/10/05 13:20:31;;;;;;;;;;;25.10;99.90;;;;;;5072255;28;19951;-75
2021/10/05 13:22:57;;;;;;;;;;;25.00;99.90;;;;;;5071881;28;20296;-75
2021/10/05 13:25:23;;;;;;;;;;;25.20;99.90;;;;;;5072738;28;19916;-75
2021/10/05 13:27:49;;;;;;;;;;;25.10;99.90;;;;;;5077972;28;19977;-76
2021/10/05 13:30:15;;;;;;;;;;;25.20;99.90;;;;;;5070630;28;19912;-77
2021/10/05 13:32:40;;;;;;;;;;;25.50;99.90;;;;;;5075078;28;19996;-76
2021/10/05 13:35:07;;;;;;;;;;;25.60;99.90;;;;;;5072688;28;19956;-76
2021/10/05 13:37:33;;;;;;;;;;;25.50;99.90;;;;;;5078735;28;19909;-77
2021/10/05 13:39:59;;;;;;;;;;;25.20;99.90;;;;;;5074347;28;19913;-74
2021/10/05 13:42:25;;;;;;;;;;;25.10;99.90;;;;;;5078224;28;19915;-74
2021/10/05 13:44:51;;;;;;;;;;;25.10;99.90;;;;;;5074403;28;19987;-76
2021/10/05 13:47:17;;;;;;;;;;;25.10;99.90;;;;;;5067157;28;19916;-75
2021/10/05 13:49:42;;;;;;;;;;;25.00;99.90;;;;;;5076732;28;19912;-76
2021/10/05 13:52:08;;;;;;;;;;;24.90;99.90;;;;;;5079408;28;19927;-76
2021/10/05 13:54:35;;;;;;;;;;;25.20;99.90;;;;;;5075788;28;19921;-78
2021/10/05 13:57:00;;;;;;;;;;;25.50;99.90;;;;;;5074876;28;19913;-76
2021/10/05 13:59:26;;;;;;;;;;;25.50;99.90;;;;;;5079604;28;19920;-76
2021/10/05 14:01:52;;;;;;;;;;;25.30;99.90;;;;;;5073194;28;19912;-76
2021/10/05 14:04:20;;;;;;;;;;;25.00;99.90;;;;;;5072862;28;19958;-77
2021/10/05 14:06:46;;;;;;;;;;;24.90;99.90;;;;;;5075519;28;19925;-77
2021/10/05 14:09:13;;;;;;;;;;;24.70;99.90;;;;;;5078086;28;19913;-77
2021/10/05 14:11:40;;;;;;;;;;;24.70;99.90;;;;;;5076281;28;19913;-76
2021/10/05 14:14:06;;;;;;;;;;;24.60;99.90;;;;;;5074683;28;19920;-77
2021/10/05 14:16:32;;;;;;;;;;;24.50;99.90;;;;;;5076284;28;20266;-76